sensor_id;sensor_type;location;lat;lon;timestamp;temperature;humidity
19755;DHT22;10036;47.812;9.274;2023-06-01T00:00:00;17.80;98.60
19755;DHT22;10036;47.812;9.274;2023-06-01T00:02:27;17.60;98.80
19755;DHT22;10036;47.812;9.274;2023-06-01T00:04:56;17.70;99.10
19755;DHT22;10036;47.812;9.274;2023-06-01T00:07:22;17.60;98.90
19755;DHT22;10036;47.812;9.274;2023-06-01T00:09:50;17.60;99.10
19755;DHT22;10036;47.812;9.274;2023-06-01T00:12:16;17.60;99.20
19755;DHT22;10036;47.812;9.274;2023-06-01T00:14:43;17.50;99.30
19755;DHT22;10036;47.812;9.274;2023-06-01T00:17:10;17.50;99.80
19755;DHT22;10036;47.812;9.274;2023-06-01T00:19:37;17.40;99.70
19755;DHT22;10036;47.812;9.274;2023-06-01T00:22:06;17.40;99.90
19755;DHT22;10036;47.812;9.274;2023-06-01T00:24:33;17.30;99.70
19755;DHT22;10036;47.812;9.274;2023-06-01T00:27:00;17.10;99.90
19755;DHT22;10036;47.812;9.274;2023-06-01T00:29:27;17.00;99.90
19755;DHT22;10036;47.812;9.274;2023-06-01T00:31:54;16.60;99.90
19755;DHT22;10036;47.812;9.274;2023-06-01T00:34:21;16.40;99.90
19755;DHT22;10036;47.812;9.274;2023-06-01T00:36:47;16.40;99.90
19755;DHT22;10036;47.812;9.274;2023-06-01T00:39:16;16.20;99.90
19755;DHT22;10036;47.812;9.274;2023-06-01T00:41:42;16.20;99.90
19755;DHT22;10036;47.812;9.274;2023-06-01T00:44:09;16.00;99.90
19755;DHT22;10036;47.812;9.274;2023-06-01T00:46:37;16.10;99.90
19755;DHT22;10036;47.812;9.274;2023-06-01T00:49:03;15.80;99.90
19755;DHT22;10036;47.812;9.274;2023-06-01T00:51:32;15.80;99.90
19755;DHT22;10036;47.812;9.274;2023-06-01T00:53:59;15.70;99.90
19755;DHT22;10036;47.812;9.274;2023-06-01T00:56:28;15.80;99.90
19755;DHT22;10036;47.812;9.274;2023-06-01T00:58:56;15.80;99.90
19755;DHT22;10036;47.812;9.274;2023-06-01T01:01:23;15.90;99.90
19755;DHT22;10036;47.812;9.274;2023-06-01T01:03:51;15.70;99.90
19755;DHT22;10036;47.812;9.274;2023-06-01T01:06:27;15.80;99.90
19755;DHT22;10036;47.812;9.274;2023-06-01T01:09:14;15.70;99.90
19755;DHT22;10036;47.812;9.274;2023-06-01T01:15:12;15.60;99.90
19755;DHT22;10036;47.812;9.274;2023-06-01T01:17:45;15.60;99.90
19755;DHT22;10036;47.812;9.274;2023-06-01T01:20:16;15.60;99.90
19755;DHT22;10036;47.812;9.274;2023-06-01T01:28:42;15.60;99.90
19755;DHT22;10036;47.812;9.274;2023-06-01T01:31:11;15.60;99.90
19755;DHT22;10036;47.812;9.274;2023-06-01T01:33:40;15.50;99.90
19755;DHT22;10036;47.812;9.274;2023-06-01T01:36:09;15.50;99.90
19755;DHT22;10036;47.812;9.274;2023-06-01T01:38:36;15.30;99.90
19755;DHT22;10036;47.812;9.274;2023-06-01T01:41:03;15.20;99.90
19755;DHT22;10036;47.812;9.274;2023-06-01T01:43:31;15.30;99.90
19755;DHT22;10036;47.812;9.274;2023-06-01T01:46:06;15.30;99.90
19755;DHT22;10036;47.812;9.274;2023-06-01T01:48:37;15.20;99.90
19755;DHT22;10036;47.812;9.274;2023-06-01T01:51:11;15.50;99.90
19755;DHT22;10036;47.812;9.274;2023-06-01T01:53:41;15.50;99.90
19755;DHT22;10036;47.812;9.274;2023-06-01T01:56:12;15.30;99.90
19755;DHT22;10036;47.812;9.274;2023-06-01T01:58:39;15.30;99.90
19755;DHT22;10036;47.812;9.274;2023-06-01T02:01:08;15.20;99.90
19755;DHT22;10036;47.812;9.274;2023-06-01T02:03:35;15.20;99.90
19755;DHT22;10036;47.812;9.274;2023-06-01T02:06:02;15.30;99.90
19755;DHT22;10036;47.812;9.274;2023-06-01T02:08:29;15.20;99.90
19755;DHT22;10036;47.812;9.274;2023-06-01T02:10:56;15.30;99.90
19755;DHT22;10036;47.812;9.274;2023-06-01T02:13:23;15.20;99.90
19755;DHT22;10036;47.812;9.274;2023-06-01T02:15:49;15.10;99.90
19755;DHT22;10036;47.812;9.274;2023-06-01T02:18:18;15.10;99.90
19755;DHT22;10036;47.812;9.274;2023-06-01T02:20:45;15.20;99.90
19755;DHT22;10036;47.812;9.274;2023-06-01T02:23:12;15.20;99.90
19755;DHT22;10036;47.812;9.274;2023-06-01T02:25:39;15.20;99.90
19755;DHT22;10036;47.812;9.274;2023-06-01T02:28:06;15.20;99.90
19755;DHT22;10036;47.812;9.274;2023-06-01T02:30:33;15.20;99.90
19755;DHT22;10036;47.812;9.274;2023-06-01T02:33:00;15.10;99.90
19755;DHT22;10036;47.812;9.274;2023-06-01T02:35:28;15.10;99.90
19755;DHT22;10036;47.812;9.274;2023-06-01T02:37:55;15.10;99.90
19755;DHT22;10036;47.812;9.274;2023-06-01T02:40:22;15.00;99.90
19755;DHT22;10036;47.812;9.274;2023-06-01T02:42:49;15.00;99.90
19755;DHT22;10036;47.812;9.274;2023-06-01T02:45:16;15.00;99.90
19755;DHT22;10036;47.812;9.274;2023-06-01T02:47:43;15.00;99.90
19755;DHT22;10036;47.812;9.274;2023-06-01T02:50:10;14.90;99.90
19755;DHT22;10036;47.812;9.274;2023-06-01T02:52:38;14.80;99.90
19755;DHT22;10036;47.812;9.274;2023-06-01T02:55:08;14.80;99.90
19755;DHT22;10036;47.812;9.274;2023-06-01T02:57:35;14.80;99.90
19755;DHT22;10036;47.812;9.274;2023-06-01T03:00:02;14.80;99.90
19755;DHT22;10036;47.812;9.274;2023-06-01T03:02:29;15.00;99.90
19755;DHT22;10036;47.812;9.274;2023-06-01T03:04:56;14.80;99.90
19755;DHT22;10036;47.812;9.274;2023-06-01T03:07:23;14.70;99.90
19755;DHT22;10036;47.812;9.274;2023-06-01T03:09:52;14.70;99.90
19755;DHT22;10036;47.812;9.274;2023-06-01T03:12:18;14.70;99.90
19755;DHT22;10036;47.812;9.274;2023-06-01T03:14:45;14.70;99.90
19755;DHT22;10036;47.812;9.274;2023-06-01T03:17:12;14.80;99.90
19755;DHT22;10036;47.812;9.274;2023-06-01T03:19:39;14.70;99.90
19755;DHT22;10036;47.812;9.274;2023-06-01T03:22:06;14.50;99.90
19755;DHT22;10036;47.812;9.274;2023-06-01T03:24:33;14.50;99.90
19755;DHT22;10036;47.812;9.274;2023-06-01T03:27:03;14.40;99.90
19755;DHT22;10036;47.812;9.274;2023-06-01T03:29:31;14.60;99.90
19755;DHT22;10036;47.812;9.274;2023-06-01T03:31:57;14.40;99.90
19755;DHT22;10036;47.812;9.274;2023-06-01T03:34:24;14.50;99.90
19755;DHT22;10036;47.812;9.274;2023-06-01T03:36:52;14.50;99.90
19755;DHT22;10036;47.812;9.274;2023-06-01T03:39:19;14.60;99.90
19755;DHT22;10036;47.812;9.274;2023-06-01T03:41:46;14.40;99.90
19755;DHT22;10036;47.812;9.274;2023-06-01T03:44:15;14.60;99.90
19755;DHT22;10036;47.812;9.274;2023-06-01T03:46:41;14.60;99.90
19755;DHT22;10036;47.812;9.274;2023-06-01T03:49:08;14.60;99.90
19755;DHT22;10036;47.812;9.274;2023-06-01T03:51:35;14.40;99.90
19755;DHT22;10036;47.812;9.274;2023-06-01T03:54:02;14.60;99.90
19755;DHT22;10036;47.812;9.274;2023-06-01T03:56:29;14.60;99.90
19755;DHT22;10036;47.812;9.274;2023-06-01T03:58:56;14.70;99.90
19755;DHT22;10036;47.812;9.274;2023-06-01T04:01:24;14.70;99.90
19755;DHT22;10036;47.812;9.274;2023-06-01T04:03:54;14.70;99.90
19755;DHT22;10036;47.812;9.274;2023-06-01T04:06:22;14.80;99.90
19755;DHT22;10036;47.812;9.274;2023-06-01T04:08:49;14.80;99.90
19755;DHT22;10036;47.812;9.274;2023-06-01T04:11:21;14.60;99.90
19755;DHT22;10036;47.812;9.274;2023-06-01T04:13:48;14.50;99.90
19755;DHT22;10036;47.812;9.274;2023-06-01T04:16:15;14.30;99.90
19755;DHT22;10036;47.812;9.274;2023-06-01T04:18:43;14.10;99.90
19755;DHT22;10036;47.812;9.274;2023-06-01T04:21:10;14.10;99.90
19755;DHT22;10036;47.812;9.274;2023-06-01T04:23:37;14.10;99.90
19755;DHT22;10036;47.812;9.274;2023-06-01T04:26:04;14.20;99.90
19755;DHT22;10036;47.812;9.274;2023-06-01T04:28:31;14.20;99.90
19755;DHT22;10036;47.812;9.274;2023-06-01T04:30:58;14.20;99.90
19755;DHT22;10036;47.812;9.274;2023-06-01T04:33:27;14.20;99.90
19755;DHT22;10036;47.812;9.274;2023-06-01T04:35:55;14.10;99.90
19755;DHT22;10036;47.812;9.274;2023-06-01T04:38:22;14.30;99.90
19755;DHT22;10036;47.812;9.274;2023-06-01T04:40:50;14.50;99.90
19755;DHT22;10036;47.812;9.274;2023-06-01T04:43:19;14.60;99.90
19755;DHT22;10036;47.812;9.274;2023-06-01T04:45:46;14.70;99.90
19755;DHT22;10036;47.812;9.274;2023-06-01T04:48:13;14.50;99.90
19755;DHT22;10036;47.812;9.274;2023-06-01T04:50:42;14.30;99.90
19755;DHT22;10036;47.812;9.274;2023-06-01T04:53:11;14.50;99.90
19755;DHT22;10036;47.812;9.274;2023-06-01T04:55:38;14.50;99.90
19755;DHT22;10036;47.812;9.274;2023-06-01T04:58:05;14.60;99.90
19755;DHT22;10036;47.812;9.274;2023-06-01T05:00:32;14.60;99.90
19755;DHT22;10036;47.812;9.274;2023-06-01T05:02:59;14.60;99.90
19755;DHT22;10036;47.812;9.274;2023-06-01T05:05:28;14.60;99.90
19755;DHT22;10036;47.812;9.274;2023-06-01T05:07:55;14.60;99.90
19755;DHT22;10036;47.812;9.274;2023-06-01T05:10:23;14.60;99.90
19755;DHT22;10036;47.812;9.274;2023-06-01T05:12:50;14.70;99.90
19755;DHT22;10036;47.812;9.274;2023-06-01T05:15:17;14.80;99.90
19755;DHT22;10036;47.812;9.274;2023-06-01T05:17:44;14.70;99.90
19755;DHT22;10036;47.812;9.274;2023-06-01T05:20:12;14.80;99.90
19755;DHT22;10036;47.812;9.274;2023-06-01T05:22:39;15.00;99.90
19755;DHT22;10036;47.812;9.274;2023-06-01T05:25:06;14.80;99.90
19755;DHT22;10036;47.812;9.274;2023-06-01T05:27:35;15.00;99.90
19755;DHT22;10036;47.812;9.274;2023-06-01T05:30:03;15.00;99.90
19755;DHT22;10036;47.812;9.274;2023-06-01T05:32:31;15.10;99.90
19755;DHT22;10036;47.812;9.274;2023-06-01T05:34:57;15.20;99.90
19755;DHT22;10036;47.812;9.274;2023-06-01T05:37:24;15.30;99.90
19755;DHT22;10036;47.812;9.274;2023-06-01T05:39:51;15.30;99.90
19755;DHT22;10036;47.812;9.274;2023-06-01T05:42:18;15.40;99.90
19755;DHT22;10036;47.812;9.274;2023-06-01T05:44:46;15.50;99.90
19755;DHT22;10036;47.812;9.274;2023-06-01T05:47:13;15.40;99.90
19755;DHT22;10036;47.812;9.274;2023-06-01T05:49:40;15.60;99.90
19755;DHT22;10036;47.812;9.274;2023-06-01T05:52:09;15.70;99.90
19755;DHT22;10036;47.812;9.274;2023-06-01T05:54:36;15.90;99.90
19755;DHT22;10036;47.812;9.274;2023-06-01T05:57:03;15.90;99.90
19755;DHT22;10036;47.812;9.274;2023-06-01T05:59:31;15.90;99.90
19755;DHT22;10036;47.812;9.274;2023-06-01T06:01:59;16.00;99.90
19755;DHT22;10036;47.812;9.274;2023-06-01T06:04:26;16.00;99.90
19755;DHT22;10036;47.812;9.274;2023-06-01T06:06:53;16.20;99.90
19755;DHT22;10036;47.812;9.274;2023-06-01T06:09:20;16.40;99.90
19755;DHT22;10036;47.812;9.274;2023-06-01T06:11:47;16.50;99.90
19755;DHT22;10036;47.812;9.274;2023-06-01T06:14:14;16.60;99.90
19755;DHT22;10036;47.812;9.274;2023-06-01T06:16:41;16.70;99.90
19755;DHT22;10036;47.812;9.274;2023-06-01T06:19:10;16.70;99.90
19755;DHT22;10036;47.812;9.274;2023-06-01T06:21:37;16.80;99.90
19755;DHT22;10036;47.812;9.274;2023-06-01T06:24:04;16.80;99.90
19755;DHT22;10036;47.812;9.274;2023-06-01T06:26:31;16.90;99.90
19755;DHT22;10036;47.812;9.274;2023-06-01T06:28:58;16.90;99.90
19755;DHT22;10036;47.812;9.274;2023-06-01T06:31:25;17.00;99.90
19755;DHT22;10036;47.812;9.274;2023-06-01T06:33:52;17.00;99.90
19755;DHT22;10036;47.812;9.274;2023-06-01T06:36:20;17.00;99.90
19755;DHT22;10036;47.812;9.274;2023-06-01T06:38:47;17.20;99.90
19755;DHT22;10036;47.812;9.274;2023-06-01T06:41:14;17.20;99.90
19755;DHT22;10036;47.812;9.274;2023-06-01T06:43:41;17.20;99.90
19755;DHT22;10036;47.812;9.274;2023-06-01T06:46:08;17.30;99.90
19755;DHT22;10036;47.812;9.274;2023-06-01T06:48:35;17.40;99.90
19755;DHT22;10036;47.812;9.274;2023-06-01T06:51:02;17.60;99.90
19755;DHT22;10036;47.812;9.274;2023-06-01T06:53:30;17.70;99.90
19755;DHT22;10036;47.812;9.274;2023-06-01T06:55:58;17.80;99.90
19755;DHT22;10036;47.812;9.274;2023-06-01T06:58:25;17.90;99.90
19755;DHT22;10036;47.812;9.274;2023-06-01T07:00:52;18.00;99.90
19755;DHT22;10036;47.812;9.274;2023-06-01T07:03:20;18.00;99.90
19755;DHT22;10036;47.812;9.274;2023-06-01T07:05:47;18.20;99.90
19755;DHT22;10036;47.812;9.274;2023-06-01T07:08:13;18.30;99.90
19755;DHT22;10036;47.812;9.274;2023-06-01T07:10:42;18.20;99.90
19755;DHT22;10036;47.812;9.274;2023-06-01T07:13:09;18.20;99.90
19755;DHT22;10036;47.812;9.274;2023-06-01T07:15:35;18.30;99.90
19755;DHT22;10036;47.812;9.274;2023-06-01T07:18:02;18.40;99.90
19755;DHT22;10036;47.812;9.274;2023-06-01T07:20:29;18.50;99.90
19755;DHT22;10036;47.812;9.274;2023-06-01T07:22:56;18.50;99.90
19755;DHT22;10036;47.812;9.274;2023-06-01T07:25:23;18.60;99.90
19755;DHT22;10036;47.812;9.274;2023-06-01T07:27:51;18.70;99.90
19755;DHT22;10036;47.812;9.274;2023-06-01T07:30:21;18.70;99.90
19755;DHT22;10036;47.812;9.274;2023-06-01T07:32:48;18.70;99.90
19755;DHT22;10036;47.812;9.274;2023-06-01T07:35:14;18.80;99.90
19755;DHT22;10036;47.812;9.274;2023-06-01T07:37:41;19.00;99.90
19755;DHT22;10036;47.812;9.274;2023-06-01T07:40:09;19.10;99.90
19755;DHT22;10036;47.812;9.274;2023-06-01T07:42:37;19.20;99.90
19755;DHT22;10036;47.812;9.274;2023-06-01T07:45:06;19.20;99.90
19755;DHT22;10036;47.812;9.274;2023-06-01T07:47:34;19.40;99.90
19755;DHT22;10036;47.812;9.274;2023-06-01T07:50:01;19.50;99.90
19755;DHT22;10036;47.812;9.274;2023-06-01T07:52:28;19.60;99.90
19755;DHT22;10036;47.812;9.274;2023-06-01T07:54:55;19.60;99.90
19755;DHT22;10036;47.812;9.274;2023-06-01T07:57:22;19.70;99.90
19755;DHT22;10036;47.812;9.274;2023-06-01T07:59:49;19.70;99.90
19755;DHT22;10036;47.812;9.274;2023-06-01T08:02:17;19.80;99.90
19755;DHT22;10036;47.812;9.274;2023-06-01T08:04:45;19.80;99.90
19755;DHT22;10036;47.812;9.274;2023-06-01T08:07:12;19.90;99.90
19755;DHT22;10036;47.812;9.274;2023-06-01T08:09:42;20.00;99.90
19755;DHT22;10036;47.812;9.274;2023-06-01T08:12:09;20.00;99.90
19755;DHT22;10036;47.812;9.274;2023-06-01T08:14:36;20.10;99.90
19755;DHT22;10036;47.812;9.274;2023-06-01T08:17:04;20.10;99.90
19755;DHT22;10036;47.812;9.274;2023-06-01T08:19:34;20.30;99.90
19755;DHT22;10036;47.812;9.274;2023-06-01T08:22:01;20.40;99.90
19755;DHT22;10036;47.812;9.274;2023-06-01T08:24:33;20.40;99.90
19755;DHT22;10036;47.812;9.274;2023-06-01T08:27:01;20.30;99.90
19755;DHT22;10036;47.812;9.274;2023-06-01T08:29:30;20.30;99.90
19755;DHT22;10036;47.812;9.274;2023-06-01T08:31:57;20.40;99.90
19755;DHT22;10036;47.812;9.274;2023-06-01T08:34:25;20.60;99.90
19755;DHT22;10036;47.812;9.274;2023-06-01T08:36:53;20.60;99.90
19755;DHT22;10036;47.812;9.274;2023-06-01T08:39:20;20.60;99.90
19755;DHT22;10036;47.812;9.274;2023-06-01T08:41:58;20.70;99.90
19755;DHT22;10036;47.812;9.274;2023-06-01T08:44:26;20.80;99.90
19755;DHT22;10036;47.812;9.274;2023-06-01T08:46:54;20.90;99.90
19755;DHT22;10036;47.812;9.274;2023-06-01T08:49:21;20.90;99.90
19755;DHT22;10036;47.812;9.274;2023-06-01T08:51:53;21.00;99.90
19755;DHT22;10036;47.812;9.274;2023-06-01T08:54:21;21.10;99.90
19755;DHT22;10036;47.812;9.274;2023-06-01T08:56:49;21.10;99.90
19755;DHT22;10036;47.812;9.274;2023-06-01T08:59:16;21.20;99.90
19755;DHT22;10036;47.812;9.274;2023-06-01T09:01:43;21.30;99.90
19755;DHT22;10036;47.812;9.274;2023-06-01T09:04:10;21.50;99.90
19755;DHT22;10036;47.812;9.274;2023-06-01T09:06:41;21.50;99.90
19755;DHT22;10036;47.812;9.274;2023-06-01T09:09:09;21.60;99.90
19755;DHT22;10036;47.812;9.274;2023-06-01T09:11:38;21.60;99.90
19755;DHT22;10036;47.812;9.274;2023-06-01T09:14:19;21.40;99.90
19755;DHT22;10036;47.812;9.274;2023-06-01T09:16:47;21.30;99.90
19755;DHT22;10036;47.812;9.274;2023-06-01T09:19:14;21.30;99.90
19755;DHT22;10036;47.812;9.274;2023-06-01T09:21:55;21.60;99.90
19755;DHT22;10036;47.812;9.274;2023-06-01T09:24:24;21.70;99.90
19755;DHT22;10036;47.812;9.274;2023-06-01T09:26:57;21.80;99.90
19755;DHT22;10036;47.812;9.274;2023-06-01T09:29:24;22.00;99.90
19755;DHT22;10036;47.812;9.274;2023-06-01T09:31:52;22.10;99.90
19755;DHT22;10036;47.812;9.274;2023-06-01T09:34:20;22.30;99.90
19755;DHT22;10036;47.812;9.274;2023-06-01T09:36:48;22.50;99.90
19755;DHT22;10036;47.812;9.274;2023-06-01T09:39:17;22.60;99.90
19755;DHT22;10036;47.812;9.274;2023-06-01T09:41:47;22.30;99.90
19755;DHT22;10036;47.812;9.274;2023-06-01T09:44:21;22.30;99.90
19755;DHT22;10036;47.812;9.274;2023-06-01T09:46:48;22.70;99.90
19755;DHT22;10036;47.812;9.274;2023-06-01T09:49:20;22.90;99.90
19755;DHT22;10036;47.812;9.274;2023-06-01T09:51:47;22.90;99.90
19755;DHT22;10036;47.812;9.274;2023-06-01T09:54:28;23.00;99.90
19755;DHT22;10036;47.812;9.274;2023-06-01T09:56:58;23.20;99.90
19755;DHT22;10036;47.812;9.274;2023-06-01T09:59:27;23.20;99.90
19755;DHT22;10036;47.812;9.274;2023-06-01T10:01:57;23.20;99.90
19755;DHT22;10036;47.812;9.274;2023-06-01T10:04:25;23.10;99.90
19755;DHT22;10036;47.812;9.274;2023-06-01T10:06:53;23.10;99.90
19755;DHT22;10036;47.812;9.274;2023-06-01T10:09:22;23.20;99.90
19755;DHT22;10036;47.812;9.274;2023-06-01T10:11:51;23.30;99.90
19755;DHT22;10036;47.812;9.274;2023-06-01T10:14:20;23.50;99.90
19755;DHT22;10036;47.812;9.274;2023-06-01T10:16:49;23.60;99.90
19755;DHT22;10036;47.812;9.274;2023-06-01T10:19:18;23.70;99.90
19755;DHT22;10036;47.812;9.274;2023-06-01T10:21:45;23.80;99.90
19755;DHT22;10036;47.812;9.274;2023-06-01T10:24:13;24.10;99.90
19755;DHT22;10036;47.812;9.274;2023-06-01T10:26:48;24.40;99.90
19755;DHT22;10036;47.812;9.274;2023-06-01T10:29:19;24.70;99.90
19755;DHT22;10036;47.812;9.274;2023-06-01T10:31:46;25.00;99.90
19755;DHT22;10036;47.812;9.274;2023-06-01T10:34:14;25.70;99.90
19755;DHT22;10036;47.812;9.274;2023-06-01T10:37:09;25.90;99.90
19755;DHT22;10036;47.812;9.274;2023-06-01T10:39:36;26.10;99.00
19755;DHT22;10036;47.812;9.274;2023-06-01T10:42:37;26.10;99.10
19755;DHT22;10036;47.812;9.274;2023-06-01T10:45:07;25.70;99.00
19755;DHT22;10036;47.812;9.274;2023-06-01T10:47:47;25.50;99.90
19755;DHT22;10036;47.812;9.274;2023-06-01T10:50:18;25.90;99.60
19755;DHT22;10036;47.812;9.274;2023-06-01T10:52:45;25.80;99.80
19755;DHT22;10036;47.812;9.274;2023-06-01T10:55:20;25.70;99.90
19755;DHT22;10036;47.812;9.274;2023-06-01T10:57:47;25.90;99.40
19755;DHT22;10036;47.812;9.274;2023-06-01T11:00:17;26.10;98.70
19755;DHT22;10036;47.812;9.274;2023-06-01T11:02:54;25.80;99.30
19755;DHT22;10036;47.812;9.274;2023-06-01T11:05:44;25.80;99.20
19755;DHT22;10036;47.812;9.274;2023-06-01T11:08:55;25.40;99.90
19755;DHT22;10036;47.812;9.274;2023-06-01T11:11:22;25.50;99.70
19755;DHT22;10036;47.812;9.274;2023-06-01T11:14:08;25.80;99.30
19755;DHT22;10036;47.812;9.274;2023-06-01T11:16:38;25.80;99.00
19755;DHT22;10036;47.812;9.274;2023-06-01T11:19:05;25.80;98.60
19755;DHT22;10036;47.812;9.274;2023-06-01T11:21:34;25.60;98.50
19755;DHT22;10036;47.812;9.274;2023-06-01T11:24:06;25.40;97.50
19755;DHT22;10036;47.812;9.274;2023-06-01T11:26:36;25.40;99.00
19755;DHT22;10036;47.812;9.274;2023-06-01T11:29:11;25.60;98.30
19755;DHT22;10036;47.812;9.274;2023-06-01T11:31:42;25.70;97.90
19755;DHT22;10036;47.812;9.274;2023-06-01T11:34:10;25.40;98.30
19755;DHT22;10036;47.812;9.274;2023-06-01T11:36:42;25.40;97.80
19755;DHT22;10036;47.812;9.274;2023-06-01T11:39:20;25.30;98.90
19755;DHT22;10036;47.812;9.274;2023-06-01T11:41:48;25.60;99.90
19755;DHT22;10036;47.812;9.274;2023-06-01T11:44:15;26.00;98.10
19755;DHT22;10036;47.812;9.274;2023-06-01T11:46:54;25.80;98.50
19755;DHT22;10036;47.812;9.274;2023-06-01T11:49:22;25.80;98.90
19755;DHT22;10036;47.812;9.274;2023-06-01T11:51:49;26.00;98.60
19755;DHT22;10036;47.812;9.274;2023-06-01T11:54:22;26.30;97.70
19755;DHT22;10036;47.812;9.274;2023-06-01T11:56:50;26.20;96.50
19755;DHT22;10036;47.812;9.274;2023-06-01T11:59:18;26.20;97.70
19755;DHT22;10036;47.812;9.274;2023-06-01T12:01:46;26.50;97.60
19755;DHT22;10036;47.812;9.274;2023-06-01T12:04:15;26.50;96.80
19755;DHT22;10036;47.812;9.274;2023-06-01T12:06:42;26.50;96.80
19755;DHT22;10036;47.812;9.274;2023-06-01T12:09:12;26.40;96.70
19755;DHT22;10036;47.812;9.274;2023-06-01T12:11:39;26.20;96.10
19755;DHT22;10036;47.812;9.274;2023-06-01T12:14:09;26.40;96.30
19755;DHT22;10036;47.812;9.274;2023-06-01T12:16:52;26.50;95.70
19755;DHT22;10036;47.812;9.274;2023-06-01T12:19:21;26.80;96.00
19755;DHT22;10036;47.812;9.274;2023-06-01T12:21:49;27.00;96.30
19755;DHT22;10036;47.812;9.274;2023-06-01T12:24:18;27.10;96.60
19755;DHT22;10036;47.812;9.274;2023-06-01T12:26:44;26.80;95.60
19755;DHT22;10036;47.812;9.274;2023-06-01T12:29:12;26.50;95.00
19755;DHT22;10036;47.812;9.274;2023-06-01T12:31:38;26.70;95.90
19755;DHT22;10036;47.812;9.274;2023-06-01T12:34:15;26.50;95.90
19755;DHT22;10036;47.812;9.274;2023-06-01T12:36:44;26.50;96.00
19755;DHT22;10036;47.812;9.274;2023-06-01T12:39:11;26.80;95.60
19755;DHT22;10036;47.812;9.274;2023-06-01T12:41:47;27.00;94.50
19755;DHT22;10036;47.812;9.274;2023-06-01T12:44:20;27.10;94.90
19755;DHT22;10036;47.812;9.274;2023-06-01T12:46:47;27.30;96.00
19755;DHT22;10036;47.812;9.274;2023-06-01T12:49:22;27.60;94.40
19755;DHT22;10036;47.812;9.274;2023-06-01T12:51:51;27.70;94.50
19755;DHT22;10036;47.812;9.274;2023-06-01T12:54:18;27.60;93.60
19755;DHT22;10036;47.812;9.274;2023-06-01T12:56:47;27.50;93.20
19755;DHT22;10036;47.812;9.274;2023-06-01T12:59:14;27.30;94.50
19755;DHT22;10036;47.812;9.274;2023-06-01T13:01:41;26.50;94.30
19755;DHT22;10036;47.812;9.274;2023-06-01T13:04:08;25.70;95.30
19755;DHT22;10036;47.812;9.274;2023-06-01T13:06:35;25.50;95.40
19755;DHT22;10036;47.812;9.274;2023-06-01T13:09:04;25.80;95.10
19755;DHT22;10036;47.812;9.274;2023-06-01T13:11:32;26.50;95.10
19755;DHT22;10036;47.812;9.274;2023-06-01T13:13:58;26.80;93.80
19755;DHT22;10036;47.812;9.274;2023-06-01T13:16:25;27.10;94.50
19755;DHT22;10036;47.812;9.274;2023-06-01T13:18:52;27.50;94.10
19755;DHT22;10036;47.812;9.274;2023-06-01T13:21:20;27.40;93.20
19755;DHT22;10036;47.812;9.274;2023-06-01T13:23:46;27.50;93.10
19755;DHT22;10036;47.812;9.274;2023-06-01T13:26:15;27.40;93.60
19755;DHT22;10036;47.812;9.274;2023-06-01T13:28:42;27.20;93.60
19755;DHT22;10036;47.812;9.274;2023-06-01T13:31:09;27.10;93.70
19755;DHT22;10036;47.812;9.274;2023-06-01T13:33:36;26.60;93.80
19755;DHT22;10036;47.812;9.274;2023-06-01T13:36:03;26.60;93.80
19755;DHT22;10036;47.812;9.274;2023-06-01T13:38:31;27.00;92.40
19755;DHT22;10036;47.812;9.274;2023-06-01T13:40:57;27.10;93.90
19755;DHT22;10036;47.812;9.274;2023-06-01T13:43:26;27.30;93.30
19755;DHT22;10036;47.812;9.274;2023-06-01T13:45:53;27.20;92.00
19755;DHT22;10036;47.812;9.274;2023-06-01T13:48:19;27.60;93.30
19755;DHT22;10036;47.812;9.274;2023-06-01T13:50:46;28.00;92.90
19755;DHT22;10036;47.812;9.274;2023-06-01T13:53:13;27.90;92.20
19755;DHT22;10036;47.812;9.274;2023-06-01T13:55:40;27.20;92.20
19755;DHT22;10036;47.812;9.274;2023-06-01T13:58:07;27.00;92.60
19755;DHT22;10036;47.812;9.274;2023-06-01T14:00:35;26.90;93.20
19755;DHT22;10036;47.812;9.274;2023-06-01T14:03:02;27.20;92.80
19755;DHT22;10036;47.812;9.274;2023-06-01T14:05:29;27.40;93.20
19755;DHT22;10036;47.812;9.274;2023-06-01T14:07:56;27.60;92.60
19755;DHT22;10036;47.812;9.274;2023-06-01T14:10:23;27.90;91.60
19755;DHT22;10036;47.812;9.274;2023-06-01T14:12:50;27.50;92.70
19755;DHT22;10036;47.812;9.274;2023-06-01T14:15:17;28.00;91.90
19755;DHT22;10036;47.812;9.274;2023-06-01T14:17:45;28.10;90.60
19755;DHT22;10036;47.812;9.274;2023-06-01T14:20:12;27.70;91.40
19755;DHT22;10036;47.812;9.274;2023-06-01T14:22:38;27.40;91.40
19755;DHT22;10036;47.812;9.274;2023-06-01T14:25:06;27.40;90.40
19755;DHT22;10036;47.812;9.274;2023-06-01T14:27:33;28.00;91.00
19755;DHT22;10036;47.812;9.274;2023-06-01T14:30:03;28.20;88.60
19755;DHT22;10036;47.812;9.274;2023-06-01T14:32:30;27.90;90.50
19755;DHT22;10036;47.812;9.274;2023-06-01T14:34:58;28.10;90.30
19755;DHT22;10036;47.812;9.274;2023-06-01T14:37:25;27.60;91.00
19755;DHT22;10036;47.812;9.274;2023-06-01T14:39:52;27.90;90.80
19755;DHT22;10036;47.812;9.274;2023-06-01T14:42:20;27.60;90.60
19755;DHT22;10036;47.812;9.274;2023-06-01T14:44:46;27.70;90.80
19755;DHT22;10036;47.812;9.274;2023-06-01T14:47:14;28.10;90.80
19755;DHT22;10036;47.812;9.274;2023-06-01T14:49:41;28.30;90.50
19755;DHT22;10036;47.812;9.274;2023-06-01T14:52:09;28.50;90.20
19755;DHT22;10036;47.812;9.274;2023-06-01T14:54:36;28.70;90.00
19755;DHT22;10036;47.812;9.274;2023-06-01T14:57:03;29.00;90.30
19755;DHT22;10036;47.812;9.274;2023-06-01T14:59:29;28.90;90.20
19755;DHT22;10036;47.812;9.274;2023-06-01T15:01:58;28.80;89.60
19755;DHT22;10036;47.812;9.274;2023-06-01T15:04:27;28.80;88.90
19755;DHT22;10036;47.812;9.274;2023-06-01T15:06:53;28.40;86.80
19755;DHT22;10036;47.812;9.274;2023-06-01T15:09:22;27.70;90.00
19755;DHT22;10036;47.812;9.274;2023-06-01T15:11:49;27.60;90.00
19755;DHT22;10036;47.812;9.274;2023-06-01T15:14:16;27.50;90.20
19755;DHT22;10036;47.812;9.274;2023-06-01T15:16:43;27.20;90.80
19755;DHT22;10036;47.812;9.274;2023-06-01T15:19:10;27.00;90.90
19755;DHT22;10036;47.812;9.274;2023-06-01T15:21:37;27.30;90.60
19755;DHT22;10036;47.812;9.274;2023-06-01T15:24:04;27.80;89.90
19755;DHT22;10036;47.812;9.274;2023-06-01T15:26:32;27.90;89.00
19755;DHT22;10036;47.812;9.274;2023-06-01T15:28:59;27.60;90.20
19755;DHT22;10036;47.812;9.274;2023-06-01T15:31:26;28.10;90.00
19755;DHT22;10036;47.812;9.274;2023-06-01T15:33:53;28.30;88.30
19755;DHT22;10036;47.812;9.274;2023-06-01T15:36:20;28.30;87.90
19755;DHT22;10036;47.812;9.274;2023-06-01T15:38:46;28.40;88.00
19755;DHT22;10036;47.812;9.274;2023-06-01T15:41:13;28.50;87.80
19755;DHT22;10036;47.812;9.274;2023-06-01T15:43:41;27.90;88.30
19755;DHT22;10036;47.812;9.274;2023-06-01T15:46:08;27.90;86.80